Delta, Ohio
Current Conditions -  °F | °C
As of 11:55 AM on Wednesday 22 Oct 2014 (Local Time) from KUSE Reporting Station
Overcast Overcast  
Wind Chill: 44°   Ceiling: 1500
Heat Index: 46°   Visibility: 10mi
Dew Point: 39°   Wind: 5mph
Humidity: 76%   Direction: 20°NNE
Pressure: 30.35"   Gusts: 12mph
Location:  41.57°N, 84.01°W
Report Text: KUSE 221555Z AUTO 02004G10KT 10SM OVC015 08/04 A3035 RMK AO2
Loading
Personal Weather Stations






























Interactive Weather Map
Tropical Storm Tracking
New forecast layout! Learn more

10-Day Weather Forecast

Advertisements
Track Severe Weather on mobile